sensor_id;sensor_type;location;lat;lon;timestamp;P1;durP1;ratioP1;P2;durP2;ratioP2
39612;SDS011;25303;48.896;13.342;2022-09-09T00:01:08;6.32;;;4.25;;
39612;SDS011;25303;48.896;13.342;2022-09-09T00:04:05;5.53;;;4.10;;
39612;SDS011;25303;48.896;13.342;2022-09-09T00:06:59;5.40;;;4.25;;
39612;SDS011;25303;48.896;13.342;2022-09-09T00:09:46;6.43;;;4.32;;
39612;SDS011;25303;48.896;13.342;2022-09-09T00:12:32;5.70;;;4.75;;
39612;SDS011;25303;48.896;13.342;2022-09-09T00:15:20;9.10;;;6.30;;
39612;SDS011;25303;48.896;13.342;2022-09-09T00:18:08;7.10;;;6.15;;
39612;SDS011;25303;48.896;13.342;2022-09-09T00:21:00;7.25;;;5.38;;
39612;SDS011;25303;48.896;13.342;2022-09-09T00:23:50;7.47;;;5.32;;
39612;SDS011;25303;48.896;13.342;2022-09-09T00:26:36;8.07;;;5.50;;
39612;SDS011;25303;48.896;13.342;2022-09-09T00:29:23;5.68;;;3.83;;
39612;SDS011;25303;48.896;13.342;2022-09-09T00:32:16;5.50;;;4.25;;
39612;SDS011;25303;48.896;13.342;2022-09-09T00:35:02;8.40;;;3.72;;
39612;SDS011;25303;48.896;13.342;2022-09-09T00:38:00;5.82;;;3.50;;
39612;SDS011;25303;48.896;13.342;2022-09-09T00:40:49;5.00;;;3.67;;
39612;SDS011;25303;48.896;13.342;2022-09-09T00:43:35;4.80;;;3.65;;
39612;SDS011;25303;48.896;13.342;2022-09-09T00:46:21;4.35;;;3.30;;
39612;SDS011;25303;48.896;13.342;2022-09-09T00:49:24;4.90;;;3.47;;
39612;SDS011;25303;48.896;13.342;2022-09-09T00:52:22;5.10;;;3.45;;
39612;SDS011;25303;48.896;13.342;2022-09-09T00:55:12;4.20;;;2.95;;
39612;SDS011;25303;48.896;13.342;2022-09-09T00:58:00;6.72;;;3.75;;
39612;SDS011;25303;48.896;13.342;2022-09-09T01:00:44;4.85;;;3.30;;
39612;SDS011;25303;48.896;13.342;2022-09-09T01:03:32;4.15;;;3.15;;
39612;SDS011;25303;48.896;13.342;2022-09-09T01:06:20;4.18;;;3.05;;
39612;SDS011;25303;48.896;13.342;2022-09-09T01:09:13;4.25;;;3.05;;
39612;SDS011;25303;48.896;13.342;2022-09-09T01:12:07;2.92;;;2.40;;
39612;SDS011;25303;48.896;13.342;2022-09-09T01:14:56;2.40;;;1.90;;
39612;SDS011;25303;48.896;13.342;2022-09-09T01:17:48;2.38;;;1.60;;
39612;SDS011;25303;48.896;13.342;2022-09-09T01:20:38;1.70;;;1.52;;
39612;SDS011;25303;48.896;13.342;2022-09-09T01:23:38;2.47;;;1.65;;
39612;SDS011;25303;48.896;13.342;2022-09-09T01:26:45;2.70;;;1.77;;
39612;SDS011;25303;48.896;13.342;2022-09-09T01:29:38;2.63;;;1.77;;
39612;SDS011;25303;48.896;13.342;2022-09-09T01:32:39;2.95;;;1.90;;
39612;SDS011;25303;48.896;13.342;2022-09-09T01:35:31;2.78;;;1.85;;
39612;SDS011;25303;48.896;13.342;2022-09-09T01:38:22;3.08;;;1.80;;
39612;SDS011;25303;48.896;13.342;2022-09-09T01:41:07;3.15;;;1.85;;
39612;SDS011;25303;48.896;13.342;2022-09-09T01:44:00;2.50;;;1.65;;
39612;SDS011;25303;48.896;13.342;2022-09-09T01:46:47;3.03;;;1.70;;
39612;SDS011;25303;48.896;13.342;2022-09-09T01:49:32;2.58;;;1.80;;
39612;SDS011;25303;48.896;13.342;2022-09-09T01:52:23;2.30;;;1.65;;
39612;SDS011;25303;48.896;13.342;2022-09-09T01:55:07;1.85;;;1.65;;
39612;SDS011;25303;48.896;13.342;2022-09-09T01:57:55;3.17;;;2.10;;
39612;SDS011;25303;48.896;13.342;2022-09-09T02:00:50;4.93;;;2.05;;
39612;SDS011;25303;48.896;13.342;2022-09-09T02:03:39;3.75;;;2.17;;
39612;SDS011;25303;48.896;13.342;2022-09-09T02:06:33;2.65;;;2.00;;
39612;SDS011;25303;48.896;13.342;2022-09-09T02:09:30;2.42;;;2.00;;
39612;SDS011;25303;48.896;13.342;2022-09-09T02:12:14;3.58;;;2.30;;
39612;SDS011;25303;48.896;13.342;2022-09-09T02:15:08;4.97;;;2.42;;
39612;SDS011;25303;48.896;13.342;2022-09-09T02:18:04;3.08;;;2.10;;
39612;SDS011;25303;48.896;13.342;2022-09-09T02:20:51;3.15;;;2.00;;
39612;SDS011;25303;48.896;13.342;2022-09-09T02:23:36;3.50;;;2.58;;
39612;SDS011;25303;48.896;13.342;2022-09-09T02:26:23;4.45;;;2.58;;
39612;SDS011;25303;48.896;13.342;2022-09-09T02:29:16;3.95;;;2.47;;
39612;SDS011;25303;48.896;13.342;2022-09-09T02:32:05;4.35;;;2.75;;
39612;SDS011;25303;48.896;13.342;2022-09-09T02:34:55;5.47;;;2.50;;
39612;SDS011;25303;48.896;13.342;2022-09-09T02:37:41;3.63;;;2.67;;
39612;SDS011;25303;48.896;13.342;2022-09-09T02:40:28;5.03;;;2.40;;
39612;SDS011;25303;48.896;13.342;2022-09-09T02:43:15;2.80;;;2.22;;
39612;SDS011;25303;48.896;13.342;2022-09-09T02:46:02;5.18;;;2.60;;
39612;SDS011;25303;48.896;13.342;2022-09-09T02:48:52;4.97;;;3.28;;
39612;SDS011;25303;48.896;13.342;2022-09-09T02:51:50;5.72;;;2.78;;
39612;SDS011;25303;48.896;13.342;2022-09-09T02:54:44;2.50;;;2.15;;
39612;SDS011;25303;48.896;13.342;2022-09-09T02:57:29;4.55;;;2.05;;
39612;SDS011;25303;48.896;13.342;2022-09-09T03:00:15;3.15;;;2.10;;
39612;SDS011;25303;48.896;13.342;2022-09-09T03:03:06;2.88;;;2.00;;
39612;SDS011;25303;48.896;13.342;2022-09-09T03:05:51;4.85;;;2.40;;
39612;SDS011;25303;48.896;13.342;2022-09-09T03:08:35;3.10;;;1.92;;
39612;SDS011;25303;48.896;13.342;2022-09-09T03:11:18;1.70;;;1.50;;
39612;SDS011;25303;48.896;13.342;2022-09-09T03:14:01;2.65;;;1.60;;
39612;SDS011;25303;48.896;13.342;2022-09-09T03:16:46;3.80;;;1.70;;
39612;SDS011;25303;48.896;13.342;2022-09-09T03:19:30;2.55;;;1.92;;
39612;SDS011;25303;48.896;13.342;2022-09-09T03:22:13;3.10;;;1.60;;
39612;SDS011;25303;48.896;13.342;2022-09-09T03:24:59;3.90;;;2.13;;
39612;SDS011;25303;48.896;13.342;2022-09-09T03:27:44;3.13;;;2.15;;
39612;SDS011;25303;48.896;13.342;2022-09-09T03:30:27;3.60;;;2.33;;
39612;SDS011;25303;48.896;13.342;2022-09-09T03:33:12;2.72;;;2.10;;
39612;SDS011;25303;48.896;13.342;2022-09-09T03:35:57;2.55;;;1.70;;
39612;SDS011;25303;48.896;13.342;2022-09-09T03:38:40;2.38;;;1.92;;
39612;SDS011;25303;48.896;13.342;2022-09-09T03:41:27;2.92;;;1.73;;
39612;SDS011;25303;48.896;13.342;2022-09-09T03:44:10;4.78;;;2.50;;
39612;SDS011;25303;48.896;13.342;2022-09-09T03:46:55;2.85;;;1.90;;
39612;SDS011;25303;48.896;13.342;2022-09-09T03:49:38;3.55;;;1.92;;
39612;SDS011;25303;48.896;13.342;2022-09-09T03:52:21;4.22;;;2.08;;
39612;SDS011;25303;48.896;13.342;2022-09-09T03:55:07;4.35;;;1.95;;
39612;SDS011;25303;48.896;13.342;2022-09-09T03:57:52;2.28;;;2.00;;
39612;SDS011;25303;48.896;13.342;2022-09-09T04:00:36;4.35;;;2.10;;
39612;SDS011;25303;48.896;13.342;2022-09-09T04:03:27;3.75;;;2.13;;
39612;SDS011;25303;48.896;13.342;2022-09-09T04:06:11;3.63;;;1.92;;
39612;SDS011;25303;48.896;13.342;2022-09-09T04:08:59;2.90;;;2.00;;
39612;SDS011;25303;48.896;13.342;2022-09-09T04:11:45;3.28;;;1.90;;
39612;SDS011;25303;48.896;13.342;2022-09-09T04:14:30;4.55;;;1.75;;
39612;SDS011;25303;48.896;13.342;2022-09-09T04:17:13;2.83;;;1.80;;
39612;SDS011;25303;48.896;13.342;2022-09-09T04:19:56;3.22;;;1.92;;
39612;SDS011;25303;48.896;13.342;2022-09-09T04:22:39;1.95;;;1.60;;
39612;SDS011;25303;48.896;13.342;2022-09-09T04:25:22;1.83;;;1.27;;
39612;SDS011;25303;48.896;13.342;2022-09-09T04:28:05;2.83;;;1.60;;
39612;SDS011;25303;48.896;13.342;2022-09-09T04:30:51;2.47;;;1.58;;
39612;SDS011;25303;48.896;13.342;2022-09-09T04:36:21;2.05;;;1.38;;
39612;SDS011;25303;48.896;13.342;2022-09-09T04:39:09;3.22;;;1.85;;
39612;SDS011;25303;48.896;13.342;2022-09-09T04:41:52;1.90;;;1.38;;
39612;SDS011;25303;48.896;13.342;2022-09-09T04:44:36;2.50;;;1.60;;
39612;SDS011;25303;48.896;13.342;2022-09-09T04:47:21;2.35;;;1.60;;
39612;SDS011;25303;48.896;13.342;2022-09-09T04:50:05;5.32;;;1.75;;
39612;SDS011;25303;48.896;13.342;2022-09-09T04:52:48;2.45;;;1.52;;
39612;SDS011;25303;48.896;13.342;2022-09-09T04:55:33;3.15;;;1.50;;
39612;SDS011;25303;48.896;13.342;2022-09-09T04:58:18;2.70;;;1.50;;
39612;SDS011;25303;48.896;13.342;2022-09-09T05:01:05;2.60;;;1.70;;
39612;SDS011;25303;48.896;13.342;2022-09-09T05:03:52;1.88;;;1.27;;
39612;SDS011;25303;48.896;13.342;2022-09-09T05:06:37;2.03;;;1.30;;
39612;SDS011;25303;48.896;13.342;2022-09-09T05:09:20;1.33;;;1.00;;
39612;SDS011;25303;48.896;13.342;2022-09-09T05:12:05;2.38;;;1.60;;
39612;SDS011;25303;48.896;13.342;2022-09-09T05:14:50;2.85;;;1.67;;
39612;SDS011;25303;48.896;13.342;2022-09-09T05:17:34;2.40;;;1.60;;
39612;SDS011;25303;48.896;13.342;2022-09-09T05:20:19;4.15;;;1.30;;
39612;SDS011;25303;48.896;13.342;2022-09-09T05:23:02;2.30;;;1.38;;
39612;SDS011;25303;48.896;13.342;2022-09-09T05:25:54;2.17;;;1.42;;
39612;SDS011;25303;48.896;13.342;2022-09-09T05:28:38;1.60;;;1.35;;
39612;SDS011;25303;48.896;13.342;2022-09-09T05:31:21;1.15;;;1.00;;
39612;SDS011;25303;48.896;13.342;2022-09-09T05:34:05;2.22;;;1.35;;
39612;SDS011;25303;48.896;13.342;2022-09-09T05:36:50;1.20;;;0.90;;
39612;SDS011;25303;48.896;13.342;2022-09-09T05:39:35;1.92;;;1.17;;
39612;SDS011;25303;48.896;13.342;2022-09-09T05:42:19;4.18;;;1.40;;
39612;SDS011;25303;48.896;13.342;2022-09-09T05:45:03;2.08;;;1.42;;
39612;SDS011;25303;48.896;13.342;2022-09-09T05:47:50;2.92;;;1.70;;
39612;SDS011;25303;48.896;13.342;2022-09-09T05:50:34;2.42;;;1.20;;
39612;SDS011;25303;48.896;13.342;2022-09-09T05:53:19;2.58;;;1.40;;
39612;SDS011;25303;48.896;13.342;2022-09-09T05:58:48;2.17;;;1.42;;
39612;SDS011;25303;48.896;13.342;2022-09-09T06:01:33;1.85;;;1.67;;
39612;SDS011;25303;48.896;13.342;2022-09-09T06:04:24;2.75;;;1.60;;
39612;SDS011;25303;48.896;13.342;2022-09-09T06:07:07;1.42;;;1.25;;
39612;SDS011;25303;48.896;13.342;2022-09-09T06:09:52;2.13;;;1.10;;
39612;SDS011;25303;48.896;13.342;2022-09-09T06:12:35;2.03;;;1.30;;
39612;SDS011;25303;48.896;13.342;2022-09-09T06:15:18;1.20;;;1.02;;
39612;SDS011;25303;48.896;13.342;2022-09-09T06:18:01;1.15;;;0.80;;
39612;SDS011;25303;48.896;13.342;2022-09-09T06:20:53;2.15;;;0.95;;
39612;SDS011;25303;48.896;13.342;2022-09-09T06:23:36;1.33;;;0.90;;
39612;SDS011;25303;48.896;13.342;2022-09-09T06:26:24;1.40;;;0.80;;
39612;SDS011;25303;48.896;13.342;2022-09-09T06:29:11;2.05;;;1.30;;
39612;SDS011;25303;48.896;13.342;2022-09-09T06:31:56;3.42;;;1.23;;
39612;SDS011;25303;48.896;13.342;2022-09-09T06:34:41;1.40;;;1.00;;
39612;SDS011;25303;48.896;13.342;2022-09-09T06:37:24;1.65;;;0.90;;
39612;SDS011;25303;48.896;13.342;2022-09-09T06:40:08;2.03;;;0.85;;
39612;SDS011;25303;48.896;13.342;2022-09-09T06:42:54;1.17;;;0.80;;
39612;SDS011;25303;48.896;13.342;2022-09-09T06:45:54;1.88;;;0.80;;
39612;SDS011;25303;48.896;13.342;2022-09-09T06:48:38;1.13;;;0.85;;
39612;SDS011;25303;48.896;13.342;2022-09-09T06:51:25;1.50;;;0.85;;
39612;SDS011;25303;48.896;13.342;2022-09-09T06:54:10;1.30;;;0.93;;
39612;SDS011;25303;48.896;13.342;2022-09-09T06:56:58;2.17;;;0.90;;
39612;SDS011;25303;48.896;13.342;2022-09-09T07:00:04;1.52;;;0.90;;
39612;SDS011;25303;48.896;13.342;2022-09-09T07:02:48;0.68;;;0.68;;
39612;SDS011;25303;48.896;13.342;2022-09-09T07:08:16;1.27;;;0.80;;
39612;SDS011;25303;48.896;13.342;2022-09-09T07:11:01;1.17;;;0.75;;
39612;SDS011;25303;48.896;13.342;2022-09-09T07:13:52;1.48;;;0.90;;
39612;SDS011;25303;48.896;13.342;2022-09-09T07:19:21;0.80;;;0.70;;
39612;SDS011;25303;48.896;13.342;2022-09-09T07:22:07;2.28;;;1.08;;
39612;SDS011;25303;48.896;13.342;2022-09-09T07:24:52;1.80;;;0.88;;
39612;SDS011;25303;48.896;13.342;2022-09-09T07:27:35;1.70;;;0.88;;
39612;SDS011;25303;48.896;13.342;2022-09-09T07:30:19;3.38;;;0.90;;
39612;SDS011;25303;48.896;13.342;2022-09-09T07:33:10;1.10;;;0.82;;
39612;SDS011;25303;48.896;13.342;2022-09-09T07:35:53;2.05;;;0.90;;
39612;SDS011;25303;48.896;13.342;2022-09-09T07:38:39;1.50;;;1.00;;
39612;SDS011;25303;48.896;13.342;2022-09-09T07:41:27;3.03;;;1.08;;
39612;SDS011;25303;48.896;13.342;2022-09-09T07:44:12;1.52;;;1.00;;
39612;SDS011;25303;48.896;13.342;2022-09-09T07:46:59;1.52;;;0.80;;
39612;SDS011;25303;48.896;13.342;2022-09-09T07:49:50;1.17;;;0.70;;
39612;SDS011;25303;48.896;13.342;2022-09-09T07:52:38;1.13;;;0.88;;
39612;SDS011;25303;48.896;13.342;2022-09-09T07:55:22;2.58;;;1.10;;
39612;SDS011;25303;48.896;13.342;2022-09-09T07:58:06;1.63;;;1.10;;
39612;SDS011;25303;48.896;13.342;2022-09-09T08:00:50;1.20;;;1.00;;
39612;SDS011;25303;48.896;13.342;2022-09-09T08:03:34;1.55;;;0.90;;
39612;SDS011;25303;48.896;13.342;2022-09-09T08:06:19;1.17;;;0.80;;
39612;SDS011;25303;48.896;13.342;2022-09-09T08:09:02;1.67;;;0.85;;
39612;SDS011;25303;48.896;13.342;2022-09-09T08:11:47;1.40;;;0.80;;
39612;SDS011;25303;48.896;13.342;2022-09-09T08:14:31;2.00;;;0.93;;
39612;SDS011;25303;48.896;13.342;2022-09-09T08:17:14;1.95;;;0.80;;
39612;SDS011;25303;48.896;13.342;2022-09-09T08:19:58;2.03;;;0.85;;
39612;SDS011;25303;48.896;13.342;2022-09-09T08:22:49;1.38;;;1.00;;
39612;SDS011;25303;48.896;13.342;2022-09-09T08:25:33;1.27;;;0.90;;
39612;SDS011;25303;48.896;13.342;2022-09-09T08:28:17;1.27;;;0.88;;
39612;SDS011;25303;48.896;13.342;2022-09-09T08:31:10;2.13;;;1.00;;
39612;SDS011;25303;48.896;13.342;2022-09-09T08:33:55;2.05;;;1.10;;
39612;SDS011;25303;48.896;13.342;2022-09-09T08:36:41;1.67;;;1.10;;
39612;SDS011;25303;48.896;13.342;2022-09-09T08:39:28;1.65;;;0.85;;
39612;SDS011;25303;48.896;13.342;2022-09-09T08:42:22;1.90;;;0.90;;
39612;SDS011;25303;48.896;13.342;2022-09-09T08:45:20;1.02;;;0.82;;
39612;SDS011;25303;48.896;13.342;2022-09-09T08:48:17;1.23;;;0.90;;
39612;SDS011;25303;48.896;13.342;2022-09-09T08:51:12;0.98;;;0.70;;
39612;SDS011;25303;48.896;13.342;2022-09-09T08:53:58;1.77;;;0.88;;
39612;SDS011;25303;48.896;13.342;2022-09-09T08:56:47;1.42;;;0.80;;
39612;SDS011;25303;48.896;13.342;2022-09-09T08:59:31;1.45;;;0.70;;
39612;SDS011;25303;48.896;13.342;2022-09-09T09:02:15;1.27;;;0.77;;
39612;SDS011;25303;48.896;13.342;2022-09-09T09:05:09;2.17;;;0.70;;
39612;SDS011;25303;48.896;13.342;2022-09-09T09:08:03;0.82;;;0.70;;
39612;SDS011;25303;48.896;13.342;2022-09-09T09:10:56;1.48;;;0.82;;
39612;SDS011;25303;48.896;13.342;2022-09-09T09:13:44;1.30;;;0.90;;
39612;SDS011;25303;48.896;13.342;2022-09-09T09:16:34;1.90;;;0.80;;
39612;SDS011;25303;48.896;13.342;2022-09-09T09:19:26;1.30;;;0.80;;
39612;SDS011;25303;48.896;13.342;2022-09-09T09:22:13;1.85;;;0.93;;
39612;SDS011;25303;48.896;13.342;2022-09-09T09:25:02;0.70;;;0.70;;
39612;SDS011;25303;48.896;13.342;2022-09-09T09:27:57;1.40;;;0.93;;
39612;SDS011;25303;48.896;13.342;2022-09-09T09:30:47;1.10;;;0.80;;
39612;SDS011;25303;48.896;13.342;2022-09-09T09:33:39;0.80;;;0.60;;
39612;SDS011;25303;48.896;13.342;2022-09-09T09:36:33;1.33;;;0.90;;
39612;SDS011;25303;48.896;13.342;2022-09-09T09:39:22;1.10;;;0.73;;
39612;SDS011;25303;48.896;13.342;2022-09-09T09:42:27;1.13;;;0.73;;
39612;SDS011;25303;48.896;13.342;2022-09-09T09:45:14;1.95;;;0.63;;
39612;SDS011;25303;48.896;13.342;2022-09-09T09:48:13;2.00;;;0.55;;
39612;SDS011;25303;48.896;13.342;2022-09-09T09:50:57;2.05;;;0.75;;
39612;SDS011;25303;48.896;13.342;2022-09-09T09:53:44;1.70;;;0.65;;
39612;SDS011;25303;48.896;13.342;2022-09-09T09:59:32;2.38;;;0.60;;
39612;SDS011;25303;48.896;13.342;2022-09-09T10:02:31;2.53;;;0.70;;
39612;SDS011;25303;48.896;13.342;2022-09-09T10:05:24;1.63;;;0.73;;
39612;SDS011;25303;48.896;13.342;2022-09-09T10:08:20;2.25;;;0.90;;
39612;SDS011;25303;48.896;13.342;2022-09-09T10:11:06;1.00;;;0.70;;
39612;SDS011;25303;48.896;13.342;2022-09-09T10:14:08;1.70;;;0.90;;
39612;SDS011;25303;48.896;13.342;2022-09-09T10:17:04;2.03;;;0.93;;
39612;SDS011;25303;48.896;13.342;2022-09-09T10:20:21;1.10;;;0.80;;
39612;SDS011;25303;48.896;13.342;2022-09-09T10:23:18;1.30;;;0.80;;
39612;SDS011;25303;48.896;13.342;2022-09-09T10:26:16;1.13;;;0.88;;
39612;SDS011;25303;48.896;13.342;2022-09-09T10:29:13;1.88;;;0.90;;
39612;SDS011;25303;48.896;13.342;2022-09-09T10:32:23;1.05;;;0.80;;
39612;SDS011;25303;48.896;13.342;2022-09-09T10:35:26;1.33;;;0.80;;
39612;SDS011;25303;48.896;13.342;2022-09-09T10:38:16;1.67;;;1.00;;
39612;SDS011;25303;48.896;13.342;2022-09-09T10:41:04;1.77;;;0.90;;
39612;SDS011;25303;48.896;13.342;2022-09-09T10:44:06;1.42;;;0.90;;
39612;SDS011;25303;48.896;13.342;2022-09-09T10:47:05;2.40;;;0.93;;
39612;SDS011;25303;48.896;13.342;2022-09-09T10:50:06;1.80;;;0.82;;
39612;SDS011;25303;48.896;13.342;2022-09-09T10:53:31;1.23;;;0.80;;
39612;SDS011;25303;48.896;13.342;2022-09-09T10:56:20;1.52;;;0.98;;
39612;SDS011;25303;48.896;13.342;2022-09-09T10:59:07;1.90;;;0.80;;
39612;SDS011;25303;48.896;13.342;2022-09-09T11:01:57;1.95;;;1.38;;
39612;SDS011;25303;48.896;13.342;2022-09-09T11:04:45;3.42;;;1.40;;
39612;SDS011;25303;48.896;13.342;2022-09-09T11:07:35;2.42;;;1.02;;
39612;SDS011;25303;48.896;13.342;2022-09-09T11:10:25;1.65;;;0.68;;
39612;SDS011;25303;48.896;13.342;2022-09-09T11:13:17;2.00;;;1.00;;
39612;SDS011;25303;48.896;13.342;2022-09-09T11:16:11;1.30;;;0.80;;
39612;SDS011;25303;48.896;13.342;2022-09-09T11:19:04;1.50;;;0.50;;
39612;SDS011;25303;48.896;13.342;2022-09-09T11:21:53;1.30;;;0.82;;
39612;SDS011;25303;48.896;13.342;2022-09-09T11:24:40;1.75;;;0.90;;
39612;SDS011;25303;48.896;13.342;2022-09-09T11:27:29;1.15;;;0.60;;
39612;SDS011;25303;48.896;13.342;2022-09-09T11:30:19;1.15;;;0.65;;
39612;SDS011;25303;48.896;13.342;2022-09-09T11:33:32;2.00;;;0.80;;
39612;SDS011;25303;48.896;13.342;2022-09-09T11:36:34;1.77;;;0.70;;
39612;SDS011;25303;48.896;13.342;2022-09-09T11:42:48;1.80;;;0.70;;
39612;SDS011;25303;48.896;13.342;2022-09-09T11:45:32;3.45;;;0.75;;
39612;SDS011;25303;48.896;13.342;2022-09-09T11:48:25;1.42;;;0.93;;
39612;SDS011;25303;48.896;13.342;2022-09-09T11:51:11;1.30;;;0.85;;
39612;SDS011;25303;48.896;13.342;2022-09-09T11:53:58;1.50;;;0.70;;
39612;SDS011;25303;48.896;13.342;2022-09-09T11:56:43;1.00;;;0.60;;
39612;SDS011;25303;48.896;13.342;2022-09-09T11:59:29;1.85;;;0.70;;
39612;SDS011;25303;48.896;13.342;2022-09-09T12:02:13;0.95;;;0.60;;
39612;SDS011;25303;48.896;13.342;2022-09-09T12:05:02;2.20;;;0.77;;
39612;SDS011;25303;48.896;13.342;2022-09-09T12:07:50;1.52;;;0.80;;
39612;SDS011;25303;48.896;13.342;2022-09-09T12:10:38;1.08;;;0.60;;
39612;SDS011;25303;48.896;13.342;2022-09-09T12:13:23;1.13;;;0.80;;
39612;SDS011;25303;48.896;13.342;2022-09-09T12:19:16;3.88;;;1.17;;
39612;SDS011;25303;48.896;13.342;2022-09-09T12:22:07;1.80;;;1.02;;
39612;SDS011;25303;48.896;13.342;2022-09-09T12:25:00;1.13;;;0.90;;
39612;SDS011;25303;48.896;13.342;2022-09-09T12:27:58;2.28;;;1.10;;
39612;SDS011;25303;48.896;13.342;2022-09-09T12:30:48;2.20;;;1.30;;
39612;SDS011;25303;48.896;13.342;2022-09-09T12:33:40;1.35;;;1.02;;
39612;SDS011;25303;48.896;13.342;2022-09-09T12:36:27;1.38;;;0.95;;
39612;SDS011;25303;48.896;13.342;2022-09-09T12:39:16;2.28;;;1.00;;
39612;SDS011;25303;48.896;13.342;2022-09-09T12:42:03;1.48;;;1.02;;
39612;SDS011;25303;48.896;13.342;2022-09-09T12:44:53;1.27;;;0.88;;
39612;SDS011;25303;48.896;13.342;2022-09-09T12:47:38;2.15;;;0.80;;
39612;SDS011;25303;48.896;13.342;2022-09-09T12:50:26;1.00;;;0.80;;
39612;SDS011;25303;48.896;13.342;2022-09-09T12:53:12;1.83;;;1.00;;
39612;SDS011;25303;48.896;13.342;2022-09-09T12:58:51;2.25;;;0.93;;
39612;SDS011;25303;48.896;13.342;2022-09-09T13:01:35;2.58;;;0.70;;
39612;SDS011;25303;48.896;13.342;2022-09-09T13:04:19;1.45;;;0.90;;
39612;SDS011;25303;48.896;13.342;2022-09-09T13:07:07;1.95;;;0.90;;
39612;SDS011;25303;48.896;13.342;2022-09-09T13:09:53;1.45;;;1.00;;
39612;SDS011;25303;48.896;13.342;2022-09-09T13:12:36;1.77;;;1.20;;
39612;SDS011;25303;48.896;13.342;2022-09-09T13:15:20;2.10;;;1.20;;
39612;SDS011;25303;48.896;13.342;2022-09-09T13:18:06;2.20;;;1.10;;
39612;SDS011;25303;48.896;13.342;2022-09-09T13:20:55;2.35;;;1.00;;
39612;SDS011;25303;48.896;13.342;2022-09-09T13:23:41;1.38;;;0.90;;
39612;SDS011;25303;48.896;13.342;2022-09-09T13:26:30;2.65;;;1.00;;
39612;SDS011;25303;48.896;13.342;2022-09-09T13:29:17;1.77;;;1.20;;
39612;SDS011;25303;48.896;13.342;2022-09-09T13:32:04;1.85;;;0.93;;
39612;SDS011;25303;48.896;13.342;2022-09-09T13:34:52;1.42;;;0.80;;
39612;SDS011;25303;48.896;13.342;2022-09-09T13:37:37;2.42;;;1.05;;
39612;SDS011;25303;48.896;13.342;2022-09-09T13:40:23;1.38;;;0.80;;
39612;SDS011;25303;48.896;13.342;2022-09-09T13:45:59;1.73;;;0.98;;
39612;SDS011;25303;48.896;13.342;2022-09-09T13:48:53;3.03;;;1.00;;
39612;SDS011;25303;48.896;13.342;2022-09-09T13:51:37;2.63;;;1.40;;
39612;SDS011;25303;48.896;13.342;2022-09-09T13:54:21;2.15;;;1.30;;
39612;SDS011;25303;48.896;13.342;2022-09-09T13:57:11;2.40;;;1.13;;
39612;SDS011;25303;48.896;13.342;2022-09-09T13:59:57;1.88;;;1.13;;
39612;SDS011;25303;48.896;13.342;2022-09-09T14:02:48;2.50;;;1.20;;
39612;SDS011;25303;48.896;13.342;2022-09-09T14:05:31;2.15;;;1.10;;
39612;SDS011;25303;48.896;13.342;2022-09-09T14:08:18;2.72;;;1.05;;
39612;SDS011;25303;48.896;13.342;2022-09-09T14:11:04;1.92;;;1.10;;
39612;SDS011;25303;48.896;13.342;2022-09-09T14:13:49;3.47;;;1.23;;
39612;SDS011;25303;48.896;13.342;2022-09-09T14:19:15;1.10;;;0.75;;
39612;SDS011;25303;48.896;13.342;2022-09-09T14:21:59;1.80;;;1.10;;
39612;SDS011;25303;48.896;13.342;2022-09-09T14:24:42;1.42;;;0.93;;
39612;SDS011;25303;48.896;13.342;2022-09-09T14:27:25;2.35;;;1.00;;
39612;SDS011;25303;48.896;13.342;2022-09-09T14:30:10;1.60;;;1.00;;
39612;SDS011;25303;48.896;13.342;2022-09-09T14:32:54;1.98;;;0.90;;
39612;SDS011;25303;48.896;13.342;2022-09-09T14:35:37;1.63;;;0.90;;
39612;SDS011;25303;48.896;13.342;2022-09-09T14:38:22;1.30;;;0.93;;
39612;SDS011;25303;48.896;13.342;2022-09-09T14:41:05;1.00;;;0.70;;
39612;SDS011;25303;48.896;13.342;2022-09-09T14:43:48;2.97;;;0.68;;
39612;SDS011;25303;48.896;13.342;2022-09-09T14:46:33;0.68;;;0.50;;
39612;SDS011;25303;48.896;13.342;2022-09-09T14:49:16;0.95;;;0.47;;
39612;SDS011;25303;48.896;13.342;2022-09-09T14:51:59;0.85;;;0.60;;
39612;SDS011;25303;48.896;13.342;2022-09-09T14:54:42;1.25;;;0.50;;
39612;SDS011;25303;48.896;13.342;2022-09-09T14:57:25;1.85;;;0.70;;
39612;SDS011;25303;48.896;13.342;2022-09-09T15:00:09;3.40;;;0.80;;
39612;SDS011;25303;48.896;13.342;2022-09-09T15:02:54;0.95;;;0.73;;
39612;SDS011;25303;48.896;13.342;2022-09-09T15:05:38;1.77;;;0.70;;
39612;SDS011;25303;48.896;13.342;2022-09-09T15:08:21;2.05;;;0.80;;
39612;SDS011;25303;48.896;13.342;2022-09-09T15:11:04;1.52;;;0.80;;
39612;SDS011;25303;48.896;13.342;2022-09-09T15:13:50;1.35;;;0.70;;
39612;SDS011;25303;48.896;13.342;2022-09-09T15:16:34;1.67;;;0.68;;
39612;SDS011;25303;48.896;13.342;2022-09-09T15:19:19;1.48;;;0.73;;
39612;SDS011;25303;48.896;13.342;2022-09-09T15:22:02;0.85;;;0.63;;
39612;SDS011;25303;48.896;13.342;2022-09-09T15:24:46;1.67;;;0.80;;
39612;SDS011;25303;48.896;13.342;2022-09-09T15:27:29;1.13;;;0.57;;
39612;SDS011;25303;48.896;13.342;2022-09-09T15:30:12;2.67;;;0.52;;
39612;SDS011;25303;48.896;13.342;2022-09-09T15:32:56;0.93;;;0.55;;
39612;SDS011;25303;48.896;13.342;2022-09-09T15:35:40;1.55;;;0.60;;
39612;SDS011;25303;48.896;13.342;2022-09-09T15:38:23;0.85;;;0.40;;
39612;SDS011;25303;48.896;13.342;2022-09-09T15:41:06;1.85;;;0.45;;
39612;SDS011;25303;48.896;13.342;2022-09-09T15:43:49;2.17;;;0.60;;
39612;SDS011;25303;48.896;13.342;2022-09-09T15:46:34;1.10;;;0.50;;
39612;SDS011;25303;48.896;13.342;2022-09-09T15:49:19;1.55;;;0.70;;
39612;SDS011;25303;48.896;13.342;2022-09-09T15:52:08;0.98;;;0.50;;
39612;SDS011;25303;48.896;13.342;2022-09-09T15:54:52;1.50;;;0.55;;
39612;SDS011;25303;48.896;13.342;2022-09-09T15:57:36;2.53;;;0.68;;
39612;SDS011;25303;48.896;13.342;2022-09-09T16:00:19;1.77;;;0.82;;
39612;SDS011;25303;48.896;13.342;2022-09-09T16:03:02;0.73;;;0.50;;
39612;SDS011;25303;48.896;13.342;2022-09-09T16:05:49;1.52;;;0.50;;
39612;SDS011;25303;48.896;13.342;2022-09-09T16:08:34;3.05;;;0.52;;
39612;SDS011;25303;48.896;13.342;2022-09-09T16:11:19;1.33;;;0.60;;
39612;SDS011;25303;48.896;13.342;2022-09-09T16:14:04;1.40;;;0.55;;
39612;SDS011;25303;48.896;13.342;2022-09-09T16:16:48;1.35;;;0.60;;
39612;SDS011;25303;48.896;13.342;2022-09-09T16:19:31;1.00;;;0.65;;
39612;SDS011;25303;48.896;13.342;2022-09-09T16:22:16;0.82;;;0.50;;
39612;SDS011;25303;48.896;13.342;2022-09-09T16:25:01;1.65;;;0.80;;
39612;SDS011;25303;48.896;13.342;2022-09-09T16:27:43;1.00;;;0.57;;
39612;SDS011;25303;48.896;13.342;2022-09-09T16:30:27;1.30;;;0.70;;
39612;SDS011;25303;48.896;13.342;2022-09-09T16:33:10;1.15;;;0.77;;
39612;SDS011;25303;48.896;13.342;2022-09-09T16:35:55;1.35;;;0.70;;
39612;SDS011;25303;48.896;13.342;2022-09-09T16:38:38;1.80;;;0.60;;
39612;SDS011;25303;48.896;13.342;2022-09-09T16:41:23;1.23;;;0.77;;
39612;SDS011;25303;48.896;13.342;2022-09-09T16:44:07;0.85;;;0.80;;
39612;SDS011;25303;48.896;13.342;2022-09-09T16:46:51;1.75;;;0.98;;
39612;SDS011;25303;48.896;13.342;2022-09-09T16:49:41;1.23;;;0.88;;
39612;SDS011;25303;48.896;13.342;2022-09-09T16:52:24;2.30;;;0.95;;
39612;SDS011;25303;48.896;13.342;2022-09-09T16:55:07;2.38;;;1.08;;
39612;SDS011;25303;48.896;13.342;2022-09-09T16:57:52;1.85;;;1.10;;
39612;SDS011;25303;48.896;13.342;2022-09-09T17:00:35;4.22;;;3.05;;
39612;SDS011;25303;48.896;13.342;2022-09-09T17:03:18;6.60;;;3.95;;